Time;durP1;ratioP1;P1;durP2;ratioP2;P2;SDS_P1;SDS_P2;PMS_P1;PMS_P2;Temp;Humidity;BMP_temperature;BMP_pressure;BME280_temperature;BME280_humidity;BME280_pressure;Samples;Min_cycle;Max_cycle;Signal;HPM_P1;HPM_P2
2022/05/26 00:00:40;;;;;;;17.50;5.68;;;;;;;13.91;100.00;101810.19;7377420;19;20013;-69
2022/05/26 00:03:10;;;;;;;22.52;5.72;;;;;;;13.95;100.00;101816.41;7375787;19;20010;-69
2022/05/26 00:05:39;;;;;;;17.30;5.90;;;;;;;13.93;100.00;101808.47;7377949;19;20013;-71
2022/05/26 00:08:10;;;;;;;19.67;5.38;;;;;;;13.99;100.00;101807.69;7377210;19;20025;-69
2022/05/26 00:10:40;;;;;;;18.92;5.43;;;;;;;13.97;100.00;101810.28;7377423;19;20447;-70
2022/05/26 00:13:10;;;;;;;19.67;5.60;;;;;;;13.94;100.00;101812.00;7377595;19;20027;-69
2022/05/26 00:15:42;;;;;;;18.35;5.20;;;;;;;13.92;100.00;101816.34;7375495;19;20022;-69
2022/05/26 00:18:12;;;;;;;23.23;6.13;;;;;;;13.91;100.00;101812.84;7376366;19;20021;-69
2022/05/26 00:20:42;;;;;;;19.45;5.78;;;;;;;13.89;100.00;101813.69;7378485;19;20023;-69
2022/05/26 00:23:12;;;;;;;25.58;5.72;;;;;;;13.88;100.00;101825.09;7379734;19;20027;-69
2022/05/26 00:25:43;;;;;;;28.25;5.70;;;;;;;13.89;100.00;101821.59;7376855;19;20039;-69
2022/05/26 00:28:13;;;;;;;16.67;4.97;;;;;;;13.89;100.00;101822.47;7375900;19;20024;-70
2022/05/26 00:30:45;;;;;;;20.77;5.40;;;;;;;13.89;100.00;101827.75;7377435;19;20532;-70
2022/05/26 00:33:15;;;;;;;16.77;5.15;;;;;;;13.89;100.00;101827.75;7375414;19;20018;-70
2022/05/26 00:35:46;;;;;;;27.98;5.72;;;;;;;13.90;100.00;101837.44;7375747;19;20015;-69
2022/05/26 00:38:16;;;;;;;26.08;7.32;;;;;;;13.86;100.00;101822.44;7379206;19;20018;-69
2022/05/26 00:40:48;;;;;;;25.02;6.18;;;;;;;13.90;100.00;101829.53;7376099;19;20040;-69
2022/05/26 00:43:18;;;;;;;27.85;6.85;;;;;;;13.90;100.00;101834.78;7372493;19;20006;-69
2022/05/26 00:45:58;;;;;;;26.30;6.10;;;;;;;13.86;100.00;101842.63;7376953;19;20019;-70
2022/05/26 00:48:39;;;;;;;23.33;5.17;;;;;;;13.87;100.00;101839.13;7374615;19;20049;-70
2022/05/26 00:51:10;;;;;;;26.00;5.95;;;;;;;13.84;100.00;101839.97;7377817;19;20039;-70
2022/05/26 00:53:43;;;;;;;22.70;6.28;;;;;;;13.86;100.00;101838.25;7372189;19;20018;-70
2022/05/26 00:56:20;;;;;;;23.15;5.40;;;;;;;13.85;100.00;101847.03;7384455;19;20031;-69
2022/05/26 00:58:55;;;;;;;26.70;6.45;;;;;;;13.82;100.00;101852.25;7382388;19;20010;-69
2022/05/26 01:01:29;;;;;;;21.40;4.93;;;;;;;13.84;100.00;101852.28;7383336;19;20018;-70
2022/05/26 01:04:03;;;;;;;19.98;4.82;;;;;;;13.82;100.00;101848.72;7383603;19;20913;-69
2022/05/26 01:06:37;;;;;;;24.63;6.72;;;;;;;13.81;100.00;101845.19;7383154;19;20047;-70
2022/05/26 01:09:08;;;;;;;26.40;5.55;;;;;;;13.78;100.00;101855.69;7382074;19;20013;-69
2022/05/26 01:11:40;;;;;;;29.10;6.93;;;;;;;13.80;100.00;101847.81;7384303;19;20011;-69
2022/05/26 01:14:15;;;;;;;28.50;6.15;;;;;;;13.77;100.00;101853.91;7382026;19;20017;-69
2022/05/26 01:17:03;;;;;;;17.92;5.35;;;;;;;13.79;100.00;101848.66;7379336;19;20022;-70
2022/05/26 01:20:10;;;;;;;28.10;6.05;;;;;;;13.71;100.00;101859.09;7384444;19;20011;-70
2022/05/26 01:23:04;;;;;;;23.35;5.55;;;;;;;13.72;100.00;101850.31;7384205;19;20519;-70
2022/05/26 01:26:03;;;;;;;27.42;6.47;;;;;;;13.69;100.00;101860.81;7385872;19;20031;-70
2022/05/26 01:28:47;;;;;;;24.95;5.47;;;;;;;13.72;100.00;101869.66;7382640;19;20010;-70
2022/05/26 01:31:38;;;;;;;19.30;5.60;;;;;;;13.70;100.00;101870.50;7382288;19;20018;-70
2022/05/26 01:34:18;;;;;;;16.33;4.88;;;;;;;13.68;100.00;101862.56;7381522;19;20074;-70
2022/05/26 01:36:58;;;;;;;22.13;5.05;;;;;;;13.69;100.00;101874.88;7380866;19;20011;-74
2022/05/26 01:39:39;;;;;;;19.75;4.90;;;;;;;13.68;100.00;101880.13;7382883;19;20024;-73
2022/05/26 01:42:18;;;;;;;22.33;5.70;;;;;;;13.66;100.00;101871.31;7381553;19;20074;-73
2022/05/26 01:44:55;;;;;;;16.65;5.15;;;;;;;13.66;100.00;101876.59;7380336;19;20515;-73
2022/05/26 01:47:39;;;;;;;17.67;4.90;;;;;;;13.66;100.00;101881.84;7384393;19;20064;-72
2022/05/26 01:50:12;;;;;;;;;;;;;;;13.65;100.00;101877.44;7383543;19;20015;-73
2022/05/26 01:52:57;;;;;;;11.98;4.22;;;;;;;13.66;100.00;101881.84;7380811;19;19922;-72
2022/05/26 01:55:33;;;;;;;20.30;4.65;;;;;;;13.67;100.00;101881.00;7380096;19;20680;-73
2022/05/26 01:58:11;;;;;;;17.98;4.68;;;;;;;13.68;100.00;101885.41;7379139;19;20117;-72
2022/05/26 02:00:41;;;;;;;16.95;4.47;;;;;;;13.67;100.00;101887.16;7380766;19;20003;-73
2022/05/26 02:03:16;;;;;;;20.63;5.07;;;;;;;13.64;100.00;101891.47;7381848;19;20026;-73
2022/05/26 02:05:50;;;;;;;20.05;6.05;;;;;;;13.62;100.00;101887.94;7378499;19;20483;-73
2022/05/26 02:08:26;;;;;;;18.58;4.55;;;;;;;13.59;100.00;101890.50;7379096;19;20010;-72
2022/05/26 02:11:01;;;;;;;15.68;4.63;;;;;;;13.60;100.00;101900.19;7379900;19;20094;-72
2022/05/26 02:13:37;;;;;;;14.48;4.78;;;;;;;13.61;100.00;101896.69;7377785;19;20017;-73
2022/05/26 02:16:14;;;;;;;14.90;4.20;;;;;;;13.60;100.00;101892.28;7381613;19;20487;-74
2022/05/26 02:18:53;;;;;;;17.15;4.55;;;;;;;13.58;100.00;101899.28;7378226;19;20041;-72
2022/05/26 02:21:32;;;;;;;12.63;4.05;;;;;;;13.58;100.00;101897.53;7379568;19;20047;-72
2022/05/26 02:24:08;;;;;;;18.42;4.85;;;;;;;13.55;100.00;101900.13;7379401;19;20022;-72
2022/05/26 02:26:42;;;;;;;17.08;4.18;;;;;;;13.54;100.00;101908.00;7376749;19;20014;-72
2022/05/26 02:31:57;;;;;;;13.88;3.58;;;;;;;13.49;100.00;101909.69;7377871;19;20039;-73
2022/05/26 02:34:30;;;;;;;11.85;3.40;;;;;;;13.47;100.00;101919.31;7378643;19;20415;-73
2022/05/26 02:37:02;;;;;;;11.15;3.65;;;;;;;13.44;100.00;101921.91;7376707;19;20098;-73
2022/05/26 02:39:32;;;;;;;17.98;4.03;;;;;;;13.43;100.00;101925.38;7378641;19;20455;-73
2022/05/26 02:42:02;;;;;;;11.90;3.90;;;;;;;13.48;100.00;101927.25;7379020;19;20019;-73
2022/05/26 02:44:34;;;;;;;11.52;3.63;;;;;;;13.48;100.00;101940.44;7378049;19;21157;-73
2022/05/26 02:47:21;;;;;;;12.52;6.07;;;;;;;13.46;100.00;101928.09;7379719;19;20046;-73
2022/05/26 02:50:10;;;;;;;10.75;3.50;;;;;;;13.47;100.00;101937.75;7378661;19;20015;-73
2022/05/26 02:52:49;;;;;;;10.25;3.83;;;;;;;13.45;100.00;101931.56;7377460;19;20472;-73
2022/05/26 02:55:26;;;;;;;12.52;4.85;;;;;;;13.41;100.00;101936.78;7381311;19;20398;-73
2022/05/26 02:58:09;;;;;;;14.30;4.28;;;;;;;13.43;100.00;101939.44;7376265;19;20025;-73
2022/05/26 03:00:48;;;;;;;9.47;3.40;;;;;;;13.45;100.00;101944.75;7377267;19;20014;-72
2022/05/26 03:03:25;;;;;;;7.28;4.40;;;;;;;13.48;100.00;101939.53;7375783;19;20478;-73
2022/05/26 03:06:04;;;;;;;12.25;4.45;;;;;;;13.44;100.00;101935.06;7376773;19;20476;-72
2022/05/26 03:08:37;;;;;;;8.65;3.30;;;;;;;13.41;100.00;101941.16;7378285;19;20448;-72
2022/05/26 03:11:10;;;;;;;11.70;3.50;;;;;;;13.40;100.00;101942.03;7381094;19;20044;-72
2022/05/26 03:13:40;;;;;;;15.70;4.80;;;;;;;13.41;100.00;101949.97;7379072;19;20014;-69
2022/05/26 03:16:11;;;;;;;16.55;4.10;;;;;;;13.41;100.00;101946.44;7380072;19;20017;-69
2022/05/26 03:18:42;;;;;;;14.48;3.38;;;;;;;13.42;100.00;101956.13;7379119;19;20035;-69
2022/05/26 03:21:15;;;;;;;12.40;3.80;;;;;;;13.45;100.00;101950.03;7379753;19;20023;-69
2022/05/26 03:23:46;;;;;;;10.38;3.35;;;;;;;13.50;100.00;101951.88;7379312;19;20015;-69
2022/05/26 03:26:16;;;;;;;10.90;3.65;;;;;;;13.48;100.00;101952.72;7382101;19;20053;-69
2022/05/26 03:28:47;;;;;;;14.18;3.88;;;;;;;13.40;100.00;101955.19;7381815;19;20023;-69
2022/05/26 03:31:17;;;;;;;14.38;4.40;;;;;;;13.41;100.00;101955.22;7378423;19;20007;-72
2022/05/26 03:41:58;;;;;;;11.50;3.53;;;;;;;13.39;100.00;101951.69;7378893;19;20022;-69
2022/05/26 03:44:30;;;;;;;10.73;3.70;;;;;;;13.38;100.00;101957.81;7379396;19;20014;-69
2022/05/26 03:47:01;;;;;;;12.10;3.83;;;;;;;13.37;100.00;101953.41;7379565;19;20014;-72
2022/05/26 03:49:31;;;;;;;12.55;4.05;;;;;;;13.36;100.00;101958.63;7376249;19;20022;-72
2022/05/26 03:52:07;;;;;;;12.27;3.97;;;;;;;13.34;100.00;101963.88;7378356;19;20067;-72
2022/05/26 03:54:37;;;;;;;8.90;3.58;;;;;;;13.34;100.00;101969.16;7379477;19;20010;-72
2022/05/26 03:57:08;;;;;;;11.32;3.72;;;;;;;13.30;100.00;101967.31;7380069;19;20015;-71
2022/05/26 03:59:42;;;;;;;14.77;4.07;;;;;;;13.35;100.00;101975.31;7381091;19;20464;-72
2022/05/26 04:02:12;;;;;;;11.32;3.63;;;;;;;13.31;100.00;101974.34;7378766;19;20022;-72
2022/05/26 04:04:42;;;;;;;10.80;3.75;;;;;;;13.31;100.00;101979.63;7378276;19;20052;-72
2022/05/26 04:07:15;;;;;;;10.60;3.63;;;;;;;13.29;100.00;101972.53;7374154;19;20081;-72
2022/05/26 04:09:46;;;;;;;10.07;3.97;;;;;;;13.34;100.00;101973.53;7376505;19;20451;-72
2022/05/26 04:12:18;;;;;;;11.88;4.00;;;;;;;13.30;100.00;101980.47;7375931;19;20018;-72
2022/05/26 04:14:47;;;;;;;8.93;3.50;;;;;;;13.29;100.00;101983.97;7377660;19;20010;-72
2022/05/26 04:17:17;;;;;;;9.77;3.40;;;;;;;13.22;100.00;101992.59;7375388;19;20010;-71
2022/05/26 04:19:47;;;;;;;13.73;4.32;;;;;;;13.23;100.00;101991.75;7375602;19;20081;-69
2022/05/26 04:22:23;;;;;;;8.27;3.20;;;;;;;13.29;100.00;101999.78;7372677;19;21507;-69
2022/05/26 04:24:56;;;;;;;15.50;4.00;;;;;;;13.30;100.00;102005.94;7374515;19;20018;-72
2022/05/26 04:27:29;;;;;;;10.77;4.10;;;;;;;13.31;100.00;102005.97;7374454;19;20018;-72
2022/05/26 04:30:01;;;;;;;16.80;4.40;;;;;;;13.27;100.00;102009.41;7382981;19;20018;-71
2022/05/26 04:32:30;;;;;;;9.85;3.70;;;;;;;13.29;100.00;102005.06;7380547;19;20029;-69
2022/05/26 04:35:00;;;;;;;14.40;4.47;;;;;;;13.22;100.00;102013.69;7383144;19;20010;-72
2022/05/26 04:37:33;;;;;;;9.77;4.38;;;;;;;13.22;100.00;102016.31;7376908;19;20053;-72
2022/05/26 04:40:03;;;;;;;15.82;4.22;;;;;;;13.33;100.00;102013.91;7376922;19;20018;-73
2022/05/26 04:42:33;;;;;;;9.38;3.10;;;;;;;13.37;100.00;102018.38;7378993;19;20032;-71
2022/05/26 04:45:03;;;;;;;8.48;3.38;;;;;;;13.47;100.00;102020.34;7380300;19;20106;-69
2022/05/26 04:47:33;;;;;;;11.50;4.05;;;;;;;13.54;100.00;102027.50;7381799;19;20014;-69
2022/05/26 04:50:03;;;;;;;11.23;4.05;;;;;;;13.55;100.00;102025.75;7377869;19;20014;-70
2022/05/26 04:52:36;;;;;;;11.27;4.10;;;;;;;13.53;100.00;102024.81;7381420;19;20020;-72
2022/05/26 04:55:08;;;;;;;10.25;3.80;;;;;;;13.43;100.00;102034.31;7384235;19;20011;-73
2022/05/26 04:57:38;;;;;;;12.80;3.90;;;;;;;13.38;100.00;102038.59;7384221;19;20039;-73
2022/05/26 05:00:12;;;;;;;13.02;3.90;;;;;;;13.38;100.00;102033.34;7380108;19;20101;-72
2022/05/26 05:02:42;;;;;;;8.43;4.20;;;;;;;13.45;100.00;102045.78;7378141;19;20035;-73
2022/05/26 05:05:13;;;;;;;13.18;3.97;;;;;;;13.66;100.00;102045.28;7381111;19;20082;-74
2022/05/26 05:07:46;;;;;;;12.88;3.80;;;;;;;13.88;100.00;102041.31;7381586;19;20006;-72
2022/05/26 05:10:16;;;;;;;14.63;4.13;;;;;;;14.10;100.00;102039.97;7378712;19;20022;-72
2022/05/26 05:12:48;;;;;;;13.40;4.47;;;;;;;14.24;100.00;102049.91;7380811;19;20050;-72
2022/05/26 05:15:34;;;;;;;11.35;4.10;;;;;;;14.44;100.00;102050.28;7382073;19;20010;-72
2022/05/26 05:18:04;;;;;;;11.07;3.88;;;;;;;14.55;99.91;102056.63;7375563;19;20015;-72
2022/05/26 05:20:35;;;;;;;8.13;3.60;;;;;;;14.73;98.88;102054.25;7380981;19;21768;-73
2022/05/26 05:23:12;;;;;;;12.65;4.43;;;;;;;14.87;98.56;102049.19;7378210;19;20019;-72
2022/05/26 05:25:44;;;;;;;14.10;4.63;;;;;;;15.06;96.64;102058.25;7379053;19;20014;-72
2022/05/26 05:28:21;;;;;;;18.45;5.30;;;;;;;15.20;96.58;102059.34;7378782;19;20014;-73
2022/05/26 05:30:55;;;;;;;11.25;3.90;;;;;;;15.34;95.32;102060.41;7384125;19;20014;-71
2022/05/26 05:33:31;;;;;;;17.80;4.43;;;;;;;15.53;94.56;102064.19;7381720;19;20032;-71
2022/05/26 05:36:07;;;;;;;10.90;3.90;;;;;;;15.78;92.61;102064.47;7380776;19;20010;-72
2022/05/26 05:38:41;;;;;;;14.98;3.83;;;;;;;15.86;92.44;102066.34;7381448;19;20467;-72
2022/05/26 05:41:13;;;;;;;13.07;3.72;;;;;;;16.15;91.30;102065.75;7380106;19;20023;-71
2022/05/26 05:43:44;;;;;;;11.63;3.90;;;;;;;16.23;90.29;102070.25;7379642;19;20486;-70
2022/05/26 05:46:14;;;;;;;15.68;3.78;;;;;;;16.19;89.80;102065.78;7379301;19;20038;-71
2022/05/26 05:48:45;;;;;;;8.70;3.65;;;;;;;16.14;87.35;102069.28;7382847;19;20010;-70
2022/05/26 05:51:15;;;;;;;8.52;3.35;;;;;;;16.52;85.55;102070.50;7380812;19;20337;-70
2022/05/26 05:53:49;;;;;;;12.38;3.72;;;;;;;16.68;86.89;102064.47;7378702;19;20121;-72
2022/05/26 05:56:19;;;;;;;;;;;;;;;16.75;83.87;102073.34;7381576;19;20010;-72
2022/05/26 05:58:48;;;;;;;10.35;3.33;;;;;;;16.73;82.86;102084.81;7375038;19;19960;-72
2022/05/26 06:01:18;;;;;;;8.40;3.28;;;;;;;16.93;81.39;102084.06;7378713;19;20430;-72
2022/05/26 06:03:49;;;;;;;9.90;3.75;;;;;;;17.11;82.40;102085.97;7379381;19;20010;-73
2022/05/26 06:06:18;;;;;;;9.13;3.55;;;;;;;17.32;81.71;102085.19;7377420;19;20102;-72
2022/05/26 06:08:51;;;;;;;11.07;3.95;;;;;;;17.48;80.91;102088.81;7382803;19;20007;-72
2022/05/26 06:11:21;;;;;;;15.50;4.25;;;;;;;17.39;79.52;102091.41;7377923;19;20010;-72
2022/05/26 06:13:51;;;;;;;10.30;3.85;;;;;;;17.43;79.44;102091.44;7380326;19;20492;-72
2022/05/26 06:16:21;;;;;;;6.90;3.22;;;;;;;17.36;78.30;102099.34;7381640;19;20014;-72
2022/05/26 06:18:51;;;;;;;12.02;3.40;;;;;;;17.32;79.20;102099.34;7380983;19;20014;-71
2022/05/26 06:21:21;;;;;;;13.52;3.63;;;;;;;17.01;79.45;102094.72;7383876;19;20344;-71
2022/05/26 06:23:56;;;;;;;13.50;3.53;;;;;;;16.86;80.51;102107.88;7378578;19;20015;-72
2022/05/26 06:26:28;;;;;;;12.45;3.42;;;;;;;17.34;79.48;102107.31;7382824;19;20047;-72
2022/05/26 06:37:13;;;;;;;9.80;3.55;;;;;;;17.93;77.15;102114.66;7381420;19;20014;-71
2022/05/26 06:37:16;;;;;;;9.30;3.13;;;;;;;17.72;74.63;102126.06;7382766;19;20368;-71
2022/05/26 06:39:48;;;;;;;9.43;3.17;;;;;;;17.85;74.93;102122.59;7377694;19;20010;-71
2022/05/26 06:42:19;;;;;;;11.07;3.33;;;;;;;18.29;74.24;102121.81;7378635;19;20014;-71
2022/05/26 06:44:49;;;;;;;9.48;3.10;;;;;;;18.08;72.43;102119.13;7381021;19;20014;-71
2022/05/26 06:47:22;;;;;;;9.73;3.30;;;;;;;18.51;73.39;102125.41;7381370;19;20361;-71
2022/05/26 06:49:52;;;;;;;7.37;2.93;;;;;;;18.66;70.36;102129.88;7380620;19;20344;-71
2022/05/26 06:52:28;;;;;;;7.78;2.80;;;;;;;18.26;70.95;102132.44;7375806;19;20142;-71
2022/05/26 06:55:00;;;;;;;9.52;3.75;;;;;;;18.52;70.81;102129.81;7375116;19;20018;-72
2022/05/26 06:57:30;;;;;;;14.13;3.13;;;;;;;19.01;70.28;102128.06;7376557;19;20022;-71
2022/05/26 07:00:00;;;;;;;8.05;2.95;;;;;;;19.03;68.28;102126.28;7375705;19;20594;-70
2022/05/26 07:02:31;;;;;;;8.20;2.80;;;;;;;19.26;67.25;102127.13;7378376;19;20085;-69
2022/05/26 07:05:01;;;;;;;8.27;2.80;;;;;;;18.70;68.20;102136.97;7378591;19;20026;-70
2022/05/26 07:07:32;;;;;;;8.85;2.97;;;;;;;18.63;69.74;102145.81;7374737;19;20029;-71
2022/05/26 07:10:06;;;;;;;9.63;2.78;;;;;;;18.80;69.71;102144.91;7378801;19;20022;-70
2022/05/26 07:12:37;;;;;;;8.95;2.97;;;;;;;18.38;69.56;102147.50;7376849;19;20014;-70
2022/05/26 07:15:10;;;;;;;10.90;3.53;;;;;;;18.06;71.06;102147.44;7376399;19;20063;-70
2022/05/26 07:17:48;;;;;;;11.55;3.00;;;;;;;17.52;72.94;102159.56;7378499;19;20025;-70
2022/05/26 07:20:18;;;;;;;9.88;2.83;;;;;;;18.11;72.42;102159.84;7375660;19;20003;-70
2022/05/26 07:22:47;;;;;;;10.95;3.22;;;;;;;18.38;70.33;102167.00;7379000;19;20490;-70
2022/05/26 07:25:20;;;;;;;8.40;2.90;;;;;;;18.20;70.94;102157.22;7377709;19;21123;-70
2022/05/26 07:27:53;;;;;;;7.63;2.87;;;;;;;19.07;68.92;102159.06;7375742;19;20007;-72
2022/05/26 07:30:23;;;;;;;9.75;3.03;;;;;;;19.49;67.63;102158.13;7372479;19;20014;-72
2022/05/26 07:32:52;;;;;;;14.20;3.55;;;;;;;19.90;65.10;102150.88;7379483;19;20489;-71
2022/05/26 07:35:22;;;;;;;12.57;3.58;;;;;;;19.67;64.44;102151.88;7379536;19;20118;-71
2022/05/26 07:43:29;;;;;;;10.75;3.35;;;;;;;18.15;69.40;102164.28;7372170;19;20011;-71
2022/05/26 07:45:59;;;;;;;12.90;3.92;;;;;;;18.96;68.87;102167.06;7372148;19;20007;-72
2022/05/26 07:48:29;;;;;;;9.68;3.33;;;;;;;18.95;68.33;102158.19;7373201;19;20023;-72
2022/05/26 07:50:59;;;;;;;9.50;3.45;;;;;;;19.76;66.84;102163.34;7373269;19;20018;-71
2022/05/26 07:53:29;;;;;;;13.55;4.00;;;;;;;19.00;67.50;102166.16;7371379;19;20051;-72
2022/05/26 07:56:02;;;;;;;9.90;4.18;;;;;;;18.84;67.96;102167.94;7377824;19;20018;-71
2022/05/26 07:58:32;;;;;;;12.88;3.75;;;;;;;18.35;69.41;102172.28;7371393;19;20732;-72
2022/05/26 08:01:03;;;;;;;9.43;3.90;;;;;;;18.44;69.30;102171.44;7374332;19;20095;-72
2022/05/26 08:03:34;;;;;;;10.88;3.38;;;;;;;18.59;69.13;102182.09;7373769;19;20003;-72
2022/05/26 08:06:04;;;;;;;12.38;3.80;;;;;;;18.28;69.75;102178.47;7371692;19;20011;-72
2022/05/26 08:08:35;;;;;;;10.60;3.30;;;;;;;18.59;69.21;102190.94;7372189;19;20078;-72
2022/05/26 08:11:09;;;;;;;12.98;4.95;;;;;;;18.33;69.11;102187.34;7373975;19;20010;-72
2022/05/26 08:13:39;;;;;;;12.18;4.60;;;;;;;18.11;69.75;102198.78;7375059;19;20011;-73
2022/05/26 08:16:09;;;;;;;8.43;3.45;;;;;;;18.60;69.56;102184.78;7374620;19;20018;-72
2022/05/26 08:18:39;;;;;;;9.40;3.38;;;;;;;19.64;68.75;102194.47;7372476;19;20031;-72
2022/05/26 08:21:10;;;;;;;10.48;2.83;;;;;;;19.65;63.72;102191.81;7374689;19;20011;-72
2022/05/26 08:23:41;;;;;;;8.95;3.15;;;;;;;20.01;62.22;102187.22;7375393;19;20017;-72
2022/05/26 08:26:14;;;;;;;11.15;3.30;;;;;;;19.83;62.95;102186.41;7370466;19;20110;-73
2022/05/26 08:28:44;;;;;;;12.43;2.92;;;;;;;20.27;62.27;102187.97;7374548;19;20046;-70
2022/05/26 08:31:15;;;;;;;11.73;3.22;;;;;;;20.11;62.29;102186.28;7370065;19;20039;-71
2022/05/26 08:33:45;;;;;;;15.18;3.30;;;;;;;20.70;62.01;102187.75;7369097;19;20110;-70
2022/05/26 08:36:20;;;;;;;7.85;3.10;;;;;;;20.01;61.64;102192.53;7366512;19;20062;-70
2022/05/26 08:38:50;;;;;;;11.90;3.67;;;;;;;19.84;61.18;102209.47;7371130;19;20455;-71
2022/05/26 08:41:25;;;;;;;13.25;3.38;;;;;;;20.06;61.24;102215.59;7369434;19;20011;-70
2022/05/26 08:44:01;;;;;;;11.30;2.95;;;;;;;20.51;60.58;102218.97;7368186;19;20371;-70
2022/05/26 08:46:39;;;;;;;11.70;2.83;;;;;;;20.38;60.35;102215.50;7365109;19;20685;-70
2022/05/26 08:49:17;;;;;;;12.63;3.13;;;;;;;20.95;59.62;102221.31;7368359;19;20026;-70
2022/05/26 08:51:52;;;;;;;7.78;2.70;;;;;;;20.39;59.81;102225.25;7364986;19;20517;-70
2022/05/26 08:54:26;;;;;;;9.32;2.90;;;;;;;21.04;59.32;102233.69;7371690;19;20003;-70
2022/05/26 08:57:03;;;;;;;10.82;3.17;;;;;;;21.09;60.12;102242.53;7372682;19;20007;-70
2022/05/26 08:59:41;;;;;;;9.65;3.13;;;;;;;20.93;59.71;102236.44;7370680;19;20019;-70
2022/05/26 09:02:25;;;;;;;9.05;3.00;;;;;;;20.92;58.81;102241.78;7371316;19;20053;-71
2022/05/26 09:04:57;;;;;;;11.18;3.10;;;;;;;20.45;59.05;102238.53;7366689;19;20007;-70
2022/05/26 09:13:11;;;;;;;11.23;2.70;;;;;;;21.25;58.85;102248.66;7367548;19;20484;-71
2022/05/26 09:15:42;;;;;;;13.98;3.45;;;;;;;21.27;58.34;102246.88;7374523;19;20011;-70
2022/05/26 09:18:16;;;;;;;14.50;3.42;;;;;;;20.71;59.31;102249.06;7377161;19;20017;-71
2022/05/26 09:20:47;;;;;;;7.80;3.20;;;;;;;20.35;59.62;102252.78;7374741;19;20050;-71
2022/05/26 09:23:24;;;;;;;11.70;2.80;;;;;;;21.08;59.16;102251.44;7375779;19;20007;-71
2022/05/26 09:25:57;;;;;;;9.93;3.17;;;;;;;21.47;57.47;102255.59;7377250;19;20010;-71
2022/05/26 09:28:36;;;;;;;11.02;3.00;;;;;;;20.93;57.31;102255.09;7377043;19;20036;-71
2022/05/26 09:31:27;;;;;;;9.15;2.90;;;;;;;21.12;57.51;102262.06;7379104;19;20304;-71
2022/05/26 09:34:11;;;;;;;11.90;3.83;;;;;;;21.23;58.40;102263.81;7374404;19;20519;-71
2022/05/26 09:36:45;;;;;;;;;;;;;;;20.27;58.29;102275.91;7376343;19;20297;-71
2022/05/26 09:39:15;;;;;;;11.32;3.50;;;;;;;20.75;58.54;102256.13;7372220;19;19922;-71
2022/05/26 09:41:50;;;;;;;11.80;4.28;;;;;;;21.41;56.66;102261.88;7375288;19;20014;-71
2022/05/26 09:44:32;;;;;;;7.25;2.78;;;;;;;20.72;56.68;102268.59;7375859;19;20025;-72
2022/05/26 09:47:06;;;;;;;8.95;2.65;;;;;;;20.89;56.48;102267.56;7376261;19;20703;-70
2022/05/26 09:49:43;;;;;;;8.15;3.05;;;;;;;20.91;57.13;102267.56;7370763;19;20586;-72
2022/05/26 09:52:18;;;;;;;6.93;2.67;;;;;;;21.13;56.16;102277.19;7370202;19;20014;-72
2022/05/26 09:54:49;;;;;;;10.27;2.90;;;;;;;21.09;57.09;102275.44;7375795;19;20022;-70
2022/05/26 09:57:22;;;;;;;10.45;2.78;;;;;;;21.37;55.58;102269.91;7373497;19;20117;-70
2022/05/26 09:59:55;;;;;;;11.68;3.00;;;;;;;21.23;55.17;102277.13;7377100;19;20519;-71
2022/05/26 10:02:31;;;;;;;7.95;2.83;;;;;;;21.66;55.36;102275.88;7379891;19;20126;-70
2022/05/26 10:05:07;;;;;;;9.25;2.67;;;;;;;22.07;54.63;102283.44;7371887;19;20583;-71
2022/05/26 10:07:50;;;;;;;11.50;2.83;;;;;;;21.27;53.95;102292.22;7376312;19;20684;-70
2022/05/26 10:10:27;;;;;;;8.10;2.67;;;;;;;21.36;55.11;102302.81;7374223;19;20049;-71
2022/05/26 10:13:21;;;;;;;9.57;3.50;;;;;;;21.62;54.74;102300.81;7378408;19;20022;-71
2022/05/26 10:16:07;;;;;;;9.30;2.40;;;;;;;21.75;53.75;102289.13;7377640;19;20479;-71
2022/05/26 10:18:59;;;;;;;;;;;;;;;21.20;55.43;102296.69;7378991;19;20014;-71
2022/05/26 10:21:45;;;;;;;8.40;2.85;;;;;;;21.04;55.59;102289.69;7377923;19;20690;-72
2022/05/26 10:24:34;;;;;;;12.13;2.67;;;;;;;21.17;54.90;102283.38;7377303;19;20343;-70
2022/05/26 10:27:15;;;;;;;8.68;3.10;;;;;;;20.77;56.16;102278.34;7373239;19;20316;-71
2022/05/26 10:29:58;;;;;;;7.88;2.72;;;;;;;21.03;54.48;102288.81;7375111;19;20469;-70
2022/05/26 10:32:40;;;;;;;9.27;3.13;;;;;;;21.50;55.02;102287.59;7374122;19;20045;-71
2022/05/26 10:35:22;;;;;;;9.35;2.75;;;;;;;21.57;53.17;102291.09;7377855;19;20016;-71
2022/05/26 10:38:16;;;;;;;7.60;2.60;;;;;;;22.05;53.09;102287.03;7369843;19;20043;-71
2022/05/26 10:40:56;;;;;;;9.13;2.40;;;;;;;21.66;51.98;102283.88;7366686;19;20014;-70
2022/05/26 10:43:31;;;;;;;11.15;3.90;;;;;;;21.99;52.08;102271.03;7370512;19;20018;-71
2022/05/26 10:46:06;;;;;;;13.90;3.90;;;;;;;21.19;54.41;102287.81;7373585;19;20019;-71
2022/05/26 10:48:45;;;;;;;9.60;2.75;;;;;;;21.56;54.76;102279.53;7373000;19;20021;-71
2022/05/26 10:51:19;;;;;;;9.95;2.83;;;;;;;21.73;52.95;102272.22;7369708;19;20017;-71
2022/05/26 10:53:55;;;;;;;9.15;2.42;;;;;;;21.29;54.50;102274.44;7370156;19;20783;-71
2022/05/26 10:56:31;;;;;;;8.65;2.72;;;;;;;21.10;55.21;102278.97;7375074;19;20035;-70
2022/05/26 10:59:13;;;;;;;12.55;3.05;;;;;;;21.00;55.18;102288.84;7373291;19;20014;-71
2022/05/26 11:01:48;;;;;;;4.88;2.42;;;;;;;20.68;55.36;102274.84;7369373;19;20051;-71
2022/05/26 11:04:27;;;;;;;7.50;2.58;;;;;;;20.17;56.00;102277.72;7373617;19;20698;-71
2022/05/26 11:07:02;;;;;;;11.38;2.90;;;;;;;20.32;57.17;102266.09;7376743;19;20476;-74
2022/05/26 11:09:39;;;;;;;9.10;2.58;;;;;;;20.51;56.22;102273.16;7373619;19;20590;-74
2022/05/26 11:12:14;;;;;;;8.60;2.38;;;;;;;20.46;54.86;102258.97;7372948;19;20018;-73
2022/05/26 11:17:45;;;;;;;10.70;2.75;;;;;;;20.51;54.58;102257.16;7371914;19;20061;-74
2022/05/26 11:20:23;;;;;;;6.35;2.40;;;;;;;20.39;55.50;102251.91;7376021;19;20028;-74
2022/05/26 11:22:54;;;;;;;8.52;2.53;;;;;;;20.41;55.41;102257.22;7366995;19;20020;-74
2022/05/26 11:25:28;;;;;;;9.13;2.60;;;;;;;20.26;56.19;102268.81;7369156;19;20010;-74
2022/05/26 11:28:05;;;;;;;9.10;2.45;;;;;;;20.25;54.65;102265.25;7372494;19;20014;-74
2022/05/26 11:36:48;;;;;;;7.80;2.38;;;;;;;21.01;52.64;102261.25;7376217;19;20022;-69
2022/05/26 11:39:25;;;;;;;4.97;2.20;;;;;;;21.30;52.08;102262.84;7378007;19;20318;-70
2022/05/26 11:42:00;;;;;;;8.10;2.40;;;;;;;20.90;52.37;102272.00;7372951;19;20014;-71
2022/05/26 11:44:39;;;;;;;7.43;2.25;;;;;;;21.36;52.78;102282.38;7374554;19;20010;-70
2022/05/26 11:47:32;;;;;;;6.60;2.28;;;;;;;20.58;53.10;102281.13;7378768;19;20019;-72
2022/05/26 11:50:30;;;;;;;10.93;2.97;;;;;;;20.50;53.18;102279.38;7379913;19;20018;-74
2022/05/26 11:53:38;;;;;;;4.40;1.90;;;;;;;20.49;53.97;102290.06;7375689;19;20044;-70
2022/05/26 11:56:38;;;;;;;7.40;2.15;;;;;;;20.52;53.39;102298.91;7379539;19;20018;-73
2022/05/26 11:59:45;;;;;;;8.02;2.47;;;;;;;20.37;54.31;102290.97;7377919;19;20052;-73
2022/05/26 12:02:41;;;;;;;8.15;3.33;;;;;;;20.52;56.13;102272.25;7376065;19;20026;-73
2022/05/26 12:05:41;;;;;;;12.27;2.80;;;;;;;20.63;56.23;102274.00;7372135;19;20241;-73
2022/05/26 12:08:38;;;;;;;10.43;2.30;;;;;;;20.21;56.49;102282.13;7372546;19;20023;-73
2022/05/26 12:11:12;;;;;;;11.32;4.22;;;;;;;20.21;56.88;102289.25;7371799;19;20014;-72
2022/05/26 12:13:47;;;;;;;8.77;3.28;;;;;;;20.43;56.22;102279.41;7373748;19;20022;-72
2022/05/26 12:16:36;;;;;;;5.80;2.28;;;;;;;20.32;56.38;102278.53;7377159;19;20040;-72
2022/05/26 12:19:11;;;;;;;5.45;2.00;;;;;;;20.10;56.11;102281.28;7377868;19;20019;-72
2022/05/26 12:21:47;;;;;;;5.55;1.80;;;;;;;19.92;55.80;102287.56;7372773;19;20513;-69
2022/05/26 12:24:47;;;;;;;8.32;2.97;;;;;;;20.02;56.65;102276.88;7375586;19;20027;-69
2022/05/26 12:28:10;;;;;;;10.10;3.58;;;;;;;19.59;56.33;102298.28;7374764;19;20014;-72
2022/05/26 12:31:08;;;;;;;11.10;4.13;;;;;;;19.71;56.19;102295.59;7376468;19;20014;-73